createdAt,value
2023-03-29T00:01:00.286Z,0.90
2023-03-29T00:06:35.081Z,0.50
2023-03-29T00:09:21.995Z,0.40
2023-03-29T00:12:09.012Z,0.50
2023-03-29T00:14:56.762Z,0.20
2023-03-29T00:17:43.669Z,0.40
2023-03-29T00:20:30.789Z,0.80
2023-03-29T00:23:18.616Z,0.90
2023-03-29T00:26:07.911Z,0.60
2023-03-29T00:28:55.059Z,0.70
2023-03-29T00:31:42.158Z,0.90
2023-03-29T00:34:32.208Z,1.20
2023-03-29T00:37:19.430Z,0.70
2023-03-29T00:40:11.132Z,0.80
2023-03-29T00:42:58.384Z,0.90
2023-03-29T00:45:45.082Z,1.10
2023-03-29T00:48:33.026Z,0.90
2023-03-29T00:51:23.549Z,0.70
2023-03-29T00:54:15.219Z,1.20
2023-03-29T00:59:52.997Z,1.00
2023-03-29T01:02:42.698Z,1.10
2023-03-29T01:05:34.574Z,0.50
2023-03-29T01:08:27.768Z,1.20
2023-03-29T01:11:22.580Z,0.80
2023-03-29T01:14:46.832Z,1.20
2023-03-29T01:17:33.386Z,1.10
2023-03-29T01:20:57.001Z,0.80
2023-03-29T01:24:07.328Z,0.40
2023-03-29T01:27:01.142Z,0.60
2023-03-29T01:30:00.460Z,0.90
2023-03-29T01:32:57.224Z,1.00
2023-03-29T01:35:49.452Z,0.70
2023-03-29T01:38:49.728Z,0.70
2023-03-29T01:41:50.762Z,0.90
2023-03-29T01:44:54.092Z,1.00
2023-03-29T01:47:52.839Z,0.70
2023-03-29T01:50:48.936Z,0.60
2023-03-29T01:53:53.847Z,1.40
2023-03-29T01:56:44.287Z,0.70
2023-03-29T01:59:34.424Z,0.60
2023-03-29T02:02:24.448Z,1.00
2023-03-29T02:05:15.321Z,0.90
2023-03-29T02:08:05.414Z,0.90
2023-03-29T02:10:53.260Z,0.70
2023-03-29T02:13:41.185Z,0.60
2023-03-29T02:16:28.318Z,1.00
2023-03-29T02:19:17.344Z,0.90
2023-03-29T02:22:13.190Z,0.80
2023-03-29T02:25:03.155Z,1.10
2023-03-29T02:27:51.872Z,1.00
2023-03-29T02:30:46.744Z,0.70
2023-03-29T02:33:45.628Z,0.70
2023-03-29T02:36:42.175Z,0.80
2023-03-29T02:39:32.253Z,0.80
2023-03-29T02:42:20.593Z,0.70
2023-03-29T02:45:09.634Z,0.60
2023-03-29T02:48:01.641Z,0.80
2023-03-29T02:50:53.740Z,0.80
2023-03-29T02:53:47.559Z,0.80
2023-03-29T02:56:56.170Z,0.90
2023-03-29T02:59:44.778Z,1.00
2023-03-29T03:02:31.662Z,0.70
2023-03-29T03:05:19.587Z,0.80
2023-03-29T03:08:07.674Z,0.80
2023-03-29T03:10:55.353Z,0.80
2023-03-29T03:13:42.226Z,1.00
2023-03-29T03:16:29.416Z,0.80
2023-03-29T03:19:18.004Z,0.90
2023-03-29T03:22:06.171Z,0.80
2023-03-29T03:24:53.571Z,1.00
2023-03-29T03:27:40.383Z,1.00
2023-03-29T03:30:28.972Z,0.80
2023-03-29T03:33:21.791Z,1.00
2023-03-29T03:36:36.149Z,1.10
2023-03-29T03:39:23.047Z,0.80
2023-03-29T03:42:10.470Z,0.40
2023-03-29T03:45:02.095Z,0.80
2023-03-29T03:48:15.636Z,0.80
2023-03-29T03:51:10.302Z,0.60
2023-03-29T03:53:57.244Z,0.70
2023-03-29T03:57:16.842Z,1.10
2023-03-29T04:00:19.465Z,0.90
2023-03-29T04:03:09.224Z,0.90
2023-03-29T04:05:56.312Z,1.20
2023-03-29T04:08:44.343Z,1.50
2023-03-29T04:11:44.563Z,1.00
2023-03-29T04:14:32.399Z,0.90
2023-03-29T04:17:28.462Z,3.80
2023-03-29T04:20:18.950Z,3.70
2023-03-29T04:23:06.153Z,11.10
2023-03-29T04:25:56.993Z,18.00
2023-03-29T04:29:07.314Z,15.50
2023-03-29T04:32:00.096Z,12.50
2023-03-29T04:35:05.620Z,9.10
2023-03-29T04:37:54.795Z,8.40
2023-03-29T04:40:44.180Z,8.70
2023-03-29T04:43:46.830Z,5.50
2023-03-29T04:46:52.245Z,6.70
2023-03-29T04:50:06.754Z,7.10
2023-03-29T04:53:03.830Z,7.70
2023-03-29T04:55:50.610Z,7.60
2023-03-29T04:58:45.938Z,7.10
2023-03-29T05:01:33.080Z,6.40
2023-03-29T05:04:21.228Z,6.20
2023-03-29T05:07:22.130Z,7.00
2023-03-29T05:10:10.048Z,5.50
2023-03-29T05:12:57.192Z,6.00
2023-03-29T05:15:44.516Z,7.90
2023-03-29T05:18:32.039Z,5.80
2023-03-29T05:21:19.123Z,6.40
2023-03-29T05:24:06.583Z,6.20
2023-03-29T05:27:21.123Z,6.60
2023-03-29T05:30:18.084Z,6.30
2023-03-29T05:33:25.664Z,7.70
2023-03-29T05:36:16.227Z,5.40
2023-03-29T05:39:06.540Z,6.10
2023-03-29T05:41:55.052Z,4.20
2023-03-29T05:44:48.597Z,5.80
2023-03-29T05:47:38.443Z,5.80
2023-03-29T05:50:25.202Z,4.90
2023-03-29T05:53:12.589Z,5.20
2023-03-29T05:55:59.776Z,5.40
2023-03-29T05:58:49.505Z,5.30
2023-03-29T06:01:36.918Z,5.10
2023-03-29T06:04:27.030Z,5.50
2023-03-29T06:07:40.353Z,3.90
2023-03-29T06:10:45.898Z,4.90
2023-03-29T06:13:46.063Z,4.80
2023-03-29T06:16:32.843Z,4.80
2023-03-29T06:19:19.740Z,5.40
2023-03-29T06:22:06.583Z,5.30
2023-03-29T06:24:54.480Z,4.50
2023-03-29T06:27:47.827Z,4.80
2023-03-29T06:30:36.020Z,5.00
2023-03-29T06:33:23.283Z,5.00
2023-03-29T06:36:16.449Z,3.90
2023-03-29T06:39:04.306Z,3.80
2023-03-29T06:42:29.722Z,4.30
2023-03-29T06:45:38.803Z,5.00
2023-03-29T06:48:30.959Z,4.80
2023-03-29T06:51:17.679Z,4.20
2023-03-29T06:54:05.614Z,4.40
2023-03-29T06:56:53.378Z,4.50
2023-03-29T06:59:43.113Z,3.50
2023-03-29T07:02:37.082Z,4.10
2023-03-29T07:05:30.265Z,3.60
2023-03-29T07:08:18.835Z,3.10
2023-03-29T07:11:29.181Z,4.50
2023-03-29T07:14:18.305Z,4.50
2023-03-29T07:17:06.234Z,4.70
2023-03-29T07:19:55.525Z,2.50
2023-03-29T07:23:01.746Z,3.30
2023-03-29T07:25:49.087Z,3.90
2023-03-29T07:28:40.105Z,3.00
2023-03-29T07:31:29.580Z,3.30
2023-03-29T07:34:25.209Z,3.10
2023-03-29T07:37:12.340Z,2.80
2023-03-29T07:40:03.616Z,2.20
2023-03-29T07:43:00.490Z,2.60
2023-03-29T07:45:52.729Z,2.10
2023-03-29T07:48:40.335Z,3.80
2023-03-29T07:51:29.886Z,2.40
2023-03-29T07:54:24.308Z,3.90
2023-03-29T07:57:16.053Z,3.00
2023-03-29T08:00:16.957Z,3.30
2023-03-29T08:03:07.581Z,2.50
2023-03-29T08:05:54.702Z,2.50
2023-03-29T08:08:41.940Z,3.00
2023-03-29T08:11:32.732Z,2.80
2023-03-29T08:14:23.943Z,1.80
2023-03-29T08:17:25.018Z,2.30
2023-03-29T08:20:15.662Z,2.10
2023-03-29T08:23:04.274Z,2.70
2023-03-29T08:25:53.685Z,2.80
2023-03-29T08:28:41.044Z,2.00
2023-03-29T08:31:28.333Z,2.20
2023-03-29T08:34:16.415Z,3.20
2023-03-29T08:37:24.713Z,2.30
2023-03-29T08:40:31.178Z,2.20
2023-03-29T08:43:49.226Z,2.40
2023-03-29T08:47:09.013Z,2.50
2023-03-29T08:50:02.518Z,2.10
2023-03-29T08:53:02.714Z,2.10
2023-03-29T08:56:34.101Z,1.60
2023-03-29T08:59:34.684Z,1.40
2023-03-29T09:02:27.436Z,2.20
2023-03-29T09:05:28.079Z,2.00
2023-03-29T09:08:27.924Z,2.20
2023-03-29T09:11:24.643Z,2.50
2023-03-29T09:14:36.542Z,2.20
2023-03-29T09:17:33.610Z,2.60
2023-03-29T09:20:40.070Z,2.00
2023-03-29T09:23:55.323Z,2.30
2023-03-29T09:27:39.384Z,1.40
2023-03-29T09:30:42.883Z,1.60
2023-03-29T09:33:42.938Z,1.90
2023-03-29T09:37:00.137Z,1.50
2023-03-29T09:39:47.674Z,1.50
2023-03-29T09:42:38.166Z,2.00
2023-03-29T09:45:25.197Z,2.40
2023-03-29T09:48:18.441Z,2.30
2023-03-29T09:51:12.999Z,1.80
2023-03-29T09:54:01.210Z,1.90
2023-03-29T09:57:13.789Z,1.70
2023-03-29T10:00:05.912Z,1.80
2023-03-29T10:03:00.923Z,2.80
2023-03-29T10:06:05.245Z,2.30
2023-03-29T10:08:59.146Z,1.70
2023-03-29T10:12:02.494Z,1.80
2023-03-29T10:14:53.583Z,2.10
2023-03-29T10:17:41.640Z,1.70
2023-03-29T10:20:28.498Z,1.00
2023-03-29T10:23:18.769Z,1.40
2023-03-29T10:26:17.886Z,1.40
2023-03-29T10:29:07.236Z,1.10
2023-03-29T10:31:55.184Z,1.90
2023-03-29T10:34:42.664Z,1.40
2023-03-29T10:37:29.652Z,1.30
2023-03-29T10:40:42.248Z,1.60
2023-03-29T10:43:37.328Z,1.40
2023-03-29T10:46:41.800Z,1.50
2023-03-29T10:49:29.412Z,1.90
2023-03-29T10:52:20.221Z,1.00
2023-03-29T10:55:13.133Z,2.70
2023-03-29T10:58:15.526Z,1.40
2023-03-29T11:01:03.885Z,1.10
2023-03-29T11:04:01.379Z,1.70
2023-03-29T11:07:01.578Z,1.20
2023-03-29T11:10:06.930Z,1.40
2023-03-29T11:13:30.520Z,1.10
2023-03-29T11:16:47.046Z,1.60
2023-03-29T11:19:40.275Z,1.10
2023-03-29T11:22:49.715Z,1.40
2023-03-29T11:25:49.192Z,1.10
2023-03-29T11:28:45.154Z,1.40
2023-03-29T11:31:54.101Z,1.40
2023-03-29T11:35:02.490Z,1.30
2023-03-29T11:38:05.702Z,1.30
2023-03-29T11:40:58.722Z,1.10
2023-03-29T11:44:09.829Z,1.60
2023-03-29T11:47:07.319Z,1.10
2023-03-29T11:50:03.532Z,1.10
2023-03-29T11:52:57.698Z,1.10
2023-03-29T11:55:46.073Z,1.00
2023-03-29T11:58:40.117Z,1.10
2023-03-29T12:01:55.948Z,0.80
2023-03-29T12:04:49.616Z,1.00
2023-03-29T12:07:42.650Z,0.90
2023-03-29T12:10:39.495Z,1.20
2023-03-29T12:13:33.874Z,1.20
2023-03-29T12:16:20.817Z,1.30
2023-03-29T12:19:42.695Z,0.70
2023-03-29T12:22:31.621Z,1.10
2023-03-29T12:25:30.906Z,0.80
2023-03-29T12:28:38.998Z,1.00
2023-03-29T12:31:29.226Z,1.50
2023-03-29T12:34:38.459Z,1.00
2023-03-29T12:38:08.340Z,0.90
2023-03-29T12:41:19.887Z,1.40
2023-03-29T12:44:26.137Z,0.90
2023-03-29T12:47:24.730Z,0.80
2023-03-29T12:50:28.473Z,1.00
2023-03-29T12:53:51.158Z,1.60
2023-03-29T12:56:51.938Z,1.20
2023-03-29T12:59:44.452Z,1.10
2023-03-29T13:02:37.245Z,1.30
2023-03-29T13:05:31.361Z,0.90
2023-03-29T13:08:53.727Z,0.70
2023-03-29T13:11:41.566Z,0.90
2023-03-29T13:14:32.388Z,1.10
2023-03-29T13:17:43.793Z,1.10
2023-03-29T13:20:40.873Z,0.40
2023-03-29T13:23:54.338Z,1.00
2023-03-29T13:26:47.461Z,1.10
2023-03-29T13:29:56.842Z,1.60
2023-03-29T13:33:06.640Z,1.00
2023-03-29T13:36:03.317Z,0.50
2023-03-29T13:38:53.935Z,1.30
2023-03-29T13:41:41.353Z,1.50
2023-03-29T13:44:41.261Z,1.00
2023-03-29T13:47:40.244Z,1.00
2023-03-29T13:50:40.662Z,0.60
2023-03-29T13:53:33.437Z,1.00
2023-03-29T13:56:27.238Z,0.70
2023-03-29T13:59:24.487Z,1.10
2023-03-29T14:02:22.159Z,0.50
2023-03-29T14:05:13.894Z,0.80
2023-03-29T14:08:19.519Z,1.30
2023-03-29T14:11:12.912Z,0.70
2023-03-29T14:14:02.988Z,0.80
2023-03-29T14:16:51.135Z,1.10
2023-03-29T14:19:38.439Z,1.00
2023-03-29T14:22:31.297Z,1.50
2023-03-29T14:25:22.723Z,1.30
2023-03-29T14:28:28.088Z,0.90
2023-03-29T14:31:23.814Z,1.10
2023-03-29T14:34:16.031Z,1.00
2023-03-29T14:37:03.207Z,0.90
2023-03-29T14:39:51.273Z,1.20
2023-03-29T14:42:38.707Z,1.10
2023-03-29T14:45:25.822Z,1.00
2023-03-29T14:48:14.628Z,0.60
2023-03-29T14:51:01.995Z,0.70
2023-03-29T14:53:49.517Z,0.90
2023-03-29T14:56:36.743Z,1.00
2023-03-29T14:59:27.260Z,1.20
2023-03-29T15:02:27.675Z,0.60
2023-03-29T15:05:32.530Z,1.50
2023-03-29T15:08:42.707Z,1.20
2023-03-29T15:11:34.881Z,1.30
2023-03-29T15:14:24.412Z,0.80
2023-03-29T15:17:33.511Z,0.80
2023-03-29T15:20:36.673Z,1.20
2023-03-29T15:23:25.790Z,1.10
2023-03-29T15:26:31.366Z,1.30
2023-03-29T15:29:23.711Z,0.70
2023-03-29T15:32:21.445Z,1.40
2023-03-29T15:35:24.721Z,1.10
2023-03-29T15:38:13.301Z,1.80
2023-03-29T15:41:01.712Z,1.80
2023-03-29T15:43:48.748Z,2.90
2023-03-29T15:46:35.624Z,2.60
2023-03-29T15:49:23.703Z,2.00
2023-03-29T15:52:11.225Z,1.40
2023-03-29T15:54:57.938Z,2.30
2023-03-29T15:57:48.442Z,1.80
2023-03-29T16:00:36.196Z,2.00
2023-03-29T16:03:24.781Z,1.30
2023-03-29T16:06:12.556Z,1.90
2023-03-29T16:09:00.575Z,2.20
2023-03-29T16:11:48.987Z,2.50
2023-03-29T16:14:36.025Z,1.30
2023-03-29T16:17:22.998Z,1.40
2023-03-29T16:20:10.604Z,0.90
2023-03-29T16:22:57.439Z,1.50
2023-03-29T16:25:44.532Z,1.60
2023-03-29T16:28:31.969Z,1.60
2023-03-29T16:31:18.755Z,1.60
2023-03-29T16:34:06.216Z,1.80
2023-03-29T16:36:53.253Z,2.00
2023-03-29T16:39:40.855Z,1.20
2023-03-29T16:42:27.444Z,1.70
2023-03-29T16:45:14.986Z,2.60
2023-03-29T16:48:01.755Z,1.50
2023-03-29T16:50:49.694Z,1.30
2023-03-29T16:53:37.261Z,1.40
2023-03-29T16:56:24.482Z,1.30
2023-03-29T16:59:12.176Z,1.90
2023-03-29T17:01:59.138Z,1.40
2023-03-29T17:04:46.868Z,1.70
2023-03-29T17:07:33.956Z,1.60
2023-03-29T17:10:22.150Z,1.50
2023-03-29T17:13:09.850Z,1.30
2023-03-29T17:15:57.505Z,1.60
2023-03-29T17:18:44.911Z,1.40
2023-03-29T17:21:31.760Z,1.10
2023-03-29T17:24:18.519Z,1.20
2023-03-29T17:27:05.547Z,1.30
2023-03-29T17:29:52.764Z,1.40
2023-03-29T17:32:41.676Z,0.90
2023-03-29T17:35:29.085Z,2.00
2023-03-29T17:38:15.892Z,1.50
2023-03-29T17:41:04.621Z,2.10
2023-03-29T17:43:52.164Z,1.60
2023-03-29T17:46:41.436Z,1.30
2023-03-29T17:49:28.842Z,1.00
2023-03-29T17:52:15.754Z,1.20
2023-03-29T17:55:03.307Z,1.50
2023-03-29T17:57:50.597Z,2.10
2023-03-29T18:00:38.084Z,1.70
2023-03-29T18:03:25.686Z,1.80
2023-03-29T18:06:13.896Z,2.00
2023-03-29T18:09:01.669Z,1.00
2023-03-29T18:11:49.059Z,1.50
2023-03-29T18:14:36.288Z,1.30
2023-03-29T18:17:24.754Z,1.20
2023-03-29T18:20:16.553Z,1.70
2023-03-29T18:25:51.918Z,1.70
2023-03-29T18:28:39.560Z,1.30
2023-03-29T18:31:28.176Z,1.40
2023-03-29T18:34:15.767Z,1.60
2023-03-29T18:37:03.278Z,1.60
2023-03-29T18:39:50.892Z,1.40
2023-03-29T18:42:38.061Z,1.00
2023-03-29T18:45:24.938Z,1.30
2023-03-29T18:48:16.121Z,0.80
2023-03-29T18:51:05.620Z,1.10
2023-03-29T18:53:55.643Z,1.20
2023-03-29T18:56:42.629Z,1.60
2023-03-29T18:59:30.454Z,1.20
2023-03-29T19:02:17.436Z,1.90
2023-03-29T19:05:05.109Z,1.30
2023-03-29T19:07:52.334Z,1.50
2023-03-29T19:10:40.033Z,0.90
2023-03-29T19:13:27.478Z,0.80
2023-03-29T19:16:14.273Z,1.10
2023-03-29T19:19:01.832Z,1.30
2023-03-29T19:21:49.682Z,1.00
2023-03-29T19:24:36.564Z,1.00
2023-03-29T19:27:24.196Z,0.70
2023-03-29T19:30:11.657Z,1.10
2023-03-29T19:32:58.274Z,1.20
2023-03-29T19:35:45.593Z,1.20
2023-03-29T19:38:32.676Z,1.30
2023-03-29T19:41:20.090Z,1.20
2023-03-29T19:44:07.113Z,1.20
2023-03-29T19:46:54.350Z,1.30
2023-03-29T19:49:41.347Z,1.20
2023-03-29T19:52:28.911Z,1.00
2023-03-29T19:55:16.623Z,1.00
2023-03-29T19:58:04.956Z,0.90
2023-03-29T20:00:53.317Z,1.20
2023-03-29T20:03:42.235Z,1.40
2023-03-29T20:06:30.821Z,1.10
2023-03-29T20:09:17.425Z,1.40
2023-03-29T20:12:04.998Z,0.90
2023-03-29T20:14:52.384Z,0.90
2023-03-29T20:17:41.439Z,1.10
2023-03-29T20:20:28.650Z,1.30
2023-03-29T20:23:15.677Z,1.20
2023-03-29T20:26:02.484Z,1.40
2023-03-29T20:28:49.889Z,0.90
2023-03-29T20:31:36.881Z,0.90
2023-03-29T20:34:23.766Z,1.00
2023-03-29T20:37:10.924Z,0.90
2023-03-29T20:39:59.474Z,1.50
2023-03-29T20:42:46.469Z,1.40
2023-03-29T20:45:46.118Z,1.30
2023-03-29T20:48:45.941Z,1.40
2023-03-29T20:51:33.805Z,1.40
2023-03-29T20:54:20.810Z,1.00
2023-03-29T20:57:08.125Z,0.90
2023-03-29T20:59:55.155Z,0.90
2023-03-29T21:02:42.097Z,0.80
2023-03-29T21:05:33.899Z,1.00
2023-03-29T21:08:20.913Z,1.50
2023-03-29T21:11:08.335Z,1.20
2023-03-29T21:13:55.224Z,0.90
2023-03-29T21:16:42.775Z,1.00
2023-03-29T21:19:29.962Z,1.20
2023-03-29T21:22:17.924Z,1.00
2023-03-29T21:25:10.149Z,1.10
2023-03-29T21:27:57.288Z,1.10
2023-03-29T21:30:44.405Z,0.80
2023-03-29T21:33:30.903Z,1.10
2023-03-29T21:36:17.526Z,0.80
2023-03-29T21:39:04.956Z,1.00
2023-03-29T21:41:52.062Z,1.00
2023-03-29T21:44:38.990Z,1.00
2023-03-29T21:47:26.137Z,0.80
2023-03-29T21:50:13.406Z,1.30
2023-03-29T21:53:04.224Z,0.60
2023-03-29T21:55:51.857Z,1.10
2023-03-29T21:58:39.177Z,1.00
2023-03-29T22:01:26.035Z,0.80
2023-03-29T22:04:17.679Z,1.10
2023-03-29T22:07:12.605Z,1.60
2023-03-29T22:10:04.238Z,0.70
2023-03-29T22:12:52.798Z,1.30
2023-03-29T22:15:39.706Z,1.20
2023-03-29T22:18:42.708Z,0.90
2023-03-29T22:21:33.857Z,0.70
2023-03-29T22:24:20.982Z,1.10
2023-03-29T22:27:08.669Z,0.70
2023-03-29T22:29:55.766Z,0.70
2023-03-29T22:32:42.605Z,1.40
2023-03-29T22:35:29.501Z,0.70
2023-03-29T22:38:16.096Z,1.20
2023-03-29T22:41:03.539Z,0.90
2023-03-29T22:43:52.740Z,0.60
2023-03-29T22:46:39.497Z,1.10
2023-03-29T22:49:26.397Z,0.90
2023-03-29T22:52:13.235Z,1.00
2023-03-29T22:55:00.349Z,1.00
2023-03-29T22:57:47.152Z,0.90
2023-03-29T23:00:34.600Z,1.10
2023-03-29T23:03:23.326Z,1.10
2023-03-29T23:06:10.054Z,0.70
2023-03-29T23:08:56.763Z,0.90
2023-03-29T23:11:44.077Z,1.30
2023-03-29T23:14:31.105Z,1.10
2023-03-29T23:17:19.381Z,1.40
2023-03-29T23:20:07.188Z,0.80
2023-03-29T23:22:54.404Z,0.70
2023-03-29T23:25:45.733Z,0.50
2023-03-29T23:28:34.328Z,0.80
2023-03-29T23:31:23.931Z,1.00
2023-03-29T23:34:11.029Z,0.90
2023-03-29T23:36:58.089Z,0.90
2023-03-29T23:39:45.197Z,0.60
2023-03-29T23:42:32.095Z,1.00
2023-03-29T23:45:19.437Z,1.00
2023-03-29T23:48:07.680Z,0.80
2023-03-29T23:50:57.475Z,1.30
2023-03-29T23:53:44.900Z,0.90
2023-03-29T23:56:32.932Z,0.90
2023-03-29T23:59:19.714Z,1.00
